JST736 YMLT-YMML
Flight info
| Callsign | JST736 |
|---|---|
| Flight time | 0h 47m |
| Altitude | 36000 |
| Route | FLIKI H215 RAZZI |
| Aircraft | A320/M-SDE3FGHIRWYZ/LB1 |
Departure
| Time | 2026-04-25 06:45 |
|---|---|
| Airport | Launceston Airport (YMLT) |
Arrival
| Time | 2026-04-25 07:32 |
|---|---|
| Airport | Melbourne Airport (YMML) |
| Time | Latitude | Longitude | Altitude | Speed | Heading |
|---|---|---|---|---|---|
| 2026-04-25 06:03 | -41.54263 | 147.20636 | 584 ft | 0 kts | 296° |
| 2026-04-25 06:40 | -41.54261 | 147.20634 | 583 ft | 1 kts | 313° |
| 2026-04-25 06:41 | -41.54255 | 147.20638 | 583 ft | 2 kts | 14° |
| 2026-04-25 06:41 | -41.54252 | 147.20673 | 583 ft | 8 kts | 106° |
| 2026-04-25 06:41 | -41.54265 | 147.20711 | 584 ft | 1 kts | 118° |
| 2026-04-25 06:41 | -41.54287 | 147.20731 | 584 ft | 11 kts | 146° |
| 2026-04-25 06:42 | -41.54367 | 147.20794 | 584 ft | 14 kts | 150° |
| 2026-04-25 06:42 | -41.54464 | 147.20874 | 586 ft | 17 kts | 147° |
| 2026-04-25 06:42 | -41.54568 | 147.20962 | 590 ft | 19 kts | 148° |
| 2026-04-25 06:42 | -41.54687 | 147.21063 | 588 ft | 22 kts | 148° |
| 2026-04-25 06:43 | -41.54824 | 147.21180 | 584 ft | 26 kts | 147° |
| 2026-04-25 06:43 | -41.54984 | 147.21316 | 584 ft | 29 kts | 147° |
| 2026-04-25 06:43 | -41.55160 | 147.21467 | 586 ft | 27 kts | 148° |
| 2026-04-25 06:43 | -41.55214 | 147.21652 | 590 ft | 22 kts | 49° |
| 2026-04-25 06:44 | -41.55152 | 147.21656 | 592 ft | 7 kts | 342° |
| 2026-04-25 06:44 | -41.55139 | 147.21646 | 592 ft | 1 kts | 327° |
| 2026-04-25 06:44 | -41.54989 | 147.21514 | 589 ft | 62 kts | 327° |
| 2026-04-25 06:44 | -41.54448 | 147.21050 | 595 ft | 119 kts | 327° |
| 2026-04-25 06:45 | -41.53648 | 147.20365 | 827 ft | 141 kts | 328° |
| 2026-04-25 06:45 | -41.52828 | 147.19669 | 1432 ft | 138 kts | 327° |
| 2026-04-25 06:45 | -41.51994 | 147.19076 | 1964 ft | 137 kts | 336° |
| 2026-04-25 06:45 | -41.51098 | 147.18600 | 2460 ft | 143 kts | 337° |
| 2026-04-25 06:46 | -41.50121 | 147.18092 | 2644 ft | 162 kts | 336° |
| 2026-04-25 06:46 | -41.49001 | 147.17505 | 2771 ft | 184 kts | 336° |
| 2026-04-25 06:46 | -41.47739 | 147.16837 | 2871 ft | 207 kts | 335° |
| 2026-04-25 06:46 | -41.46323 | 147.16083 | 3067 ft | 230 kts | 335° |
| 2026-04-25 06:47 | -41.44778 | 147.15260 | 3281 ft | 247 kts | 335° |
| 2026-04-25 06:47 | -41.43182 | 147.14411 | 3859 ft | 247 kts | 335° |
| 2026-04-25 06:47 | -41.41579 | 147.13561 | 4438 ft | 249 kts | 335° |
| 2026-04-25 06:47 | -41.39968 | 147.12703 | 5039 ft | 249 kts | 335° |
| 2026-04-25 06:48 | -41.38349 | 147.11838 | 5600 ft | 251 kts | 334° |
| 2026-04-25 06:48 | -41.36717 | 147.10967 | 6127 ft | 254 kts | 334° |
| 2026-04-25 06:48 | -41.35066 | 147.10085 | 6688 ft | 256 kts | 334° |
| 2026-04-25 06:48 | -41.33432 | 147.09210 | 7162 ft | 258 kts | 334° |
| 2026-04-25 06:49 | -41.31762 | 147.08317 | 7663 ft | 259 kts | 334° |
| 2026-04-25 06:49 | -41.30084 | 147.07418 | 8144 ft | 261 kts | 334° |
| 2026-04-25 06:49 | -41.28392 | 147.06517 | 8622 ft | 262 kts | 334° |
| 2026-04-25 06:49 | -41.26701 | 147.05617 | 9085 ft | 263 kts | 334° |
| 2026-04-25 06:50 | -41.24993 | 147.04707 | 9536 ft | 265 kts | 334° |
| 2026-04-25 06:50 | -41.23291 | 147.03797 | 9978 ft | 267 kts | 334° |
| 2026-04-25 06:50 | -41.21565 | 147.02877 | 10350 ft | 270 kts | 334° |
| 2026-04-25 06:50 | -41.19778 | 147.01921 | 10474 ft | 281 kts | 334° |
| 2026-04-25 06:51 | -41.17934 | 147.00933 | 10595 ft | 289 kts | 335° |
| 2026-04-25 06:51 | -41.16062 | 146.99934 | 10717 ft | 296 kts | 335° |
| 2026-04-25 06:51 | -41.14132 | 146.98909 | 10837 ft | 301 kts | 335° |
| 2026-04-25 06:51 | -41.12175 | 146.97874 | 10987 ft | 304 kts | 335° |
| 2026-04-25 06:52 | -41.10207 | 146.96830 | 11181 ft | 305 kts | 335° |
| 2026-04-25 06:52 | -41.08228 | 146.95780 | 11392 ft | 306 kts | 335° |
| 2026-04-25 06:52 | -41.06270 | 146.94741 | 11589 ft | 307 kts | 335° |
| 2026-04-25 06:52 | -41.04281 | 146.93687 | 11795 ft | 307 kts | 335° |
| 2026-04-25 06:53 | -41.02288 | 146.92632 | 11995 ft | 308 kts | 335° |
| 2026-04-25 06:53 | -41.00288 | 146.91575 | 12188 ft | 309 kts | 335° |
| 2026-04-25 06:53 | -40.98295 | 146.90522 | 12499 ft | 304 kts | 335° |
| 2026-04-25 06:53 | -40.96397 | 146.89525 | 13103 ft | 292 kts | 335° |
| 2026-04-25 06:54 | -40.94509 | 146.88530 | 13445 ft | 291 kts | 335° |
| 2026-04-25 06:54 | -40.92628 | 146.87532 | 13734 ft | 291 kts | 335° |
| 2026-04-25 06:54 | -40.90745 | 146.86535 | 14010 ft | 291 kts | 335° |
| 2026-04-25 06:54 | -40.88877 | 146.85547 | 14222 ft | 293 kts | 335° |
| 2026-04-25 06:55 | -40.86975 | 146.84542 | 14463 ft | 296 kts | 335° |
| 2026-04-25 06:55 | -40.85034 | 146.83515 | 14857 ft | 309 kts | 335° |
| 2026-04-25 06:55 | -40.82978 | 146.82423 | 15115 ft | 325 kts | 335° |
| 2026-04-25 06:55 | -40.80856 | 146.81299 | 15665 ft | 330 kts | 335° |
| 2026-04-25 06:56 | -40.78705 | 146.80166 | 16269 ft | 334 kts | 335° |
| 2026-04-25 06:56 | -40.76558 | 146.79037 | 16863 ft | 337 kts | 335° |
| 2026-04-25 06:56 | -40.74368 | 146.77889 | 17488 ft | 340 kts | 335° |
| 2026-04-25 06:56 | -40.72153 | 146.76729 | 18104 ft | 343 kts | 335° |
| 2026-04-25 06:57 | -40.69918 | 146.75560 | 18697 ft | 347 kts | 335° |
| 2026-04-25 06:57 | -40.67655 | 146.74377 | 19231 ft | 350 kts | 335° |
| 2026-04-25 06:57 | -40.65406 | 146.73200 | 19748 ft | 354 kts | 335° |
| 2026-04-25 06:57 | -40.63094 | 146.71988 | 20258 ft | 359 kts | 335° |
| 2026-04-25 06:58 | -40.60756 | 146.70765 | 20801 ft | 363 kts | 335° |
| 2026-04-25 06:58 | -40.58396 | 146.69533 | 21352 ft | 366 kts | 335° |
| 2026-04-25 06:58 | -40.56017 | 146.68295 | 21872 ft | 369 kts | 335° |
| 2026-04-25 06:58 | -40.53611 | 146.67040 | 22383 ft | 373 kts | 335° |
| 2026-04-25 06:59 | -40.51215 | 146.65790 | 22885 ft | 377 kts | 335° |
| 2026-04-25 06:59 | -40.48758 | 146.64508 | 23394 ft | 380 kts | 335° |
| 2026-04-25 06:59 | -40.46280 | 146.63218 | 23884 ft | 384 kts | 335° |
| 2026-04-25 06:59 | -40.43774 | 146.61918 | 24304 ft | 387 kts | 335° |
| 2026-04-25 07:00 | -40.41289 | 146.60627 | 24698 ft | 390 kts | 335° |
| 2026-04-25 07:00 | -40.38740 | 146.59305 | 25128 ft | 393 kts | 335° |
| 2026-04-25 07:00 | -40.36186 | 146.57981 | 25553 ft | 395 kts | 335° |
| 2026-04-25 07:00 | -40.33618 | 146.56648 | 25971 ft | 397 kts | 335° |
| 2026-04-25 07:01 | -40.31074 | 146.55328 | 26375 ft | 399 kts | 335° |
| 2026-04-25 07:01 | -40.28464 | 146.53977 | 26773 ft | 402 kts | 335° |
| 2026-04-25 07:01 | -40.25856 | 146.52634 | 27162 ft | 404 kts | 335° |
| 2026-04-25 07:01 | -40.23262 | 146.51297 | 27541 ft | 406 kts | 335° |
| 2026-04-25 07:02 | -40.20614 | 146.49934 | 27923 ft | 408 kts | 335° |
| 2026-04-25 07:02 | -40.17955 | 146.48563 | 28281 ft | 411 kts | 335° |
| 2026-04-25 07:02 | -40.15285 | 146.47188 | 28650 ft | 413 kts | 335° |
| 2026-04-25 07:02 | -40.12599 | 146.45802 | 29020 ft | 416 kts | 335° |
| 2026-04-25 07:03 | -40.09900 | 146.44411 | 29389 ft | 418 kts | 335° |
| 2026-04-25 07:03 | -40.07220 | 146.43032 | 29746 ft | 420 kts | 335° |
| 2026-04-25 07:03 | -40.04483 | 146.41625 | 30115 ft | 423 kts | 335° |
| 2026-04-25 07:03 | -40.01736 | 146.40216 | 30451 ft | 425 kts | 335° |
| 2026-04-25 07:04 | -39.98970 | 146.38800 | 30759 ft | 427 kts | 336° |
| 2026-04-25 07:04 | -39.96231 | 146.37396 | 31053 ft | 428 kts | 336° |
| 2026-04-25 07:04 | -39.93447 | 146.35964 | 31366 ft | 429 kts | 335° |
| 2026-04-25 07:04 | -39.90670 | 146.34532 | 31808 ft | 428 kts | 335° |
| 2026-04-25 07:05 | -39.87905 | 146.33108 | 32165 ft | 427 kts | 335° |
| 2026-04-25 07:05 | -39.82453 | 146.30314 | 32263 ft | 413 kts | 335° |
| 2026-04-25 07:06 | -39.77157 | 146.27613 | 32261 ft | 410 kts | 335° |
| 2026-04-25 07:06 | -39.71841 | 146.24888 | 32258 ft | 410 kts | 336° |
| 2026-04-25 07:07 | -39.66556 | 146.22179 | 32258 ft | 410 kts | 336° |
| 2026-04-25 07:07 | -39.61243 | 146.19462 | 32261 ft | 410 kts | 336° |
| 2026-04-25 07:08 | -39.55952 | 146.16768 | 32270 ft | 410 kts | 336° |
| 2026-04-25 07:08 | -39.50621 | 146.14066 | 32269 ft | 410 kts | 336° |
| 2026-04-25 07:09 | -39.45304 | 146.11366 | 32273 ft | 410 kts | 336° |
| 2026-04-25 07:09 | -39.39978 | 146.08674 | 32272 ft | 410 kts | 336° |
| 2026-04-25 07:10 | -39.34691 | 146.06001 | 32269 ft | 410 kts | 336° |
| 2026-04-25 07:10 | -39.29358 | 146.03309 | 32268 ft | 411 kts | 336° |
| 2026-04-25 07:11 | -39.24056 | 146.00632 | 32268 ft | 411 kts | 336° |
| 2026-04-25 07:11 | -39.18718 | 145.97946 | 32267 ft | 411 kts | 336° |
| 2026-04-25 07:12 | -39.13383 | 145.95259 | 32262 ft | 411 kts | 336° |
| 2026-04-25 07:12 | -39.08037 | 145.92587 | 32042 ft | 421 kts | 336° |
| 2026-04-25 07:12 | -39.05287 | 145.91208 | 31785 ft | 425 kts | 336° |
| 2026-04-25 07:13 | -39.02520 | 145.89826 | 31537 ft | 426 kts | 336° |
| 2026-04-25 07:13 | -38.99758 | 145.88448 | 31288 ft | 425 kts | 336° |
| 2026-04-25 07:13 | -38.97000 | 145.87068 | 31028 ft | 422 kts | 336° |
| 2026-04-25 07:13 | -38.94278 | 145.85707 | 30529 ft | 418 kts | 336° |
| 2026-04-25 07:14 | -38.91607 | 145.84372 | 29947 ft | 415 kts | 336° |
| 2026-04-25 07:14 | -38.88920 | 145.83031 | 29405 ft | 410 kts | 336° |
| 2026-04-25 07:14 | -38.86276 | 145.81716 | 28883 ft | 405 kts | 336° |
| 2026-04-25 07:14 | -38.83653 | 145.80411 | 28362 ft | 401 kts | 336° |
| 2026-04-25 07:15 | -38.81055 | 145.79123 | 27847 ft | 397 kts | 336° |
| 2026-04-25 07:15 | -38.78508 | 145.77864 | 27341 ft | 394 kts | 336° |
| 2026-04-25 07:15 | -38.75959 | 145.76601 | 26840 ft | 391 kts | 336° |
| 2026-04-25 07:15 | -38.73426 | 145.75344 | 26342 ft | 389 kts | 336° |
| 2026-04-25 07:16 | -38.70909 | 145.74098 | 25862 ft | 386 kts | 336° |
| 2026-04-25 07:16 | -38.68403 | 145.72857 | 25379 ft | 384 kts | 336° |
| 2026-04-25 07:16 | -38.65944 | 145.71637 | 24918 ft | 383 kts | 336° |
| 2026-04-25 07:16 | -38.63463 | 145.70408 | 24462 ft | 381 kts | 336° |
| 2026-04-25 07:17 | -38.60991 | 145.69184 | 24025 ft | 380 kts | 336° |
| 2026-04-25 07:17 | -38.58532 | 145.67967 | 23530 ft | 378 kts | 336° |
| 2026-04-25 07:17 | -38.56081 | 145.66759 | 23081 ft | 375 kts | 336° |
| 2026-04-25 07:17 | -38.53649 | 145.65563 | 22658 ft | 371 kts | 336° |
| 2026-04-25 07:18 | -38.51269 | 145.64393 | 22219 ft | 368 kts | 336° |
| 2026-04-25 07:18 | -38.48892 | 145.63224 | 21789 ft | 365 kts | 336° |
| 2026-04-25 07:18 | -38.46565 | 145.61972 | 21323 ft | 361 kts | 330° |
| 2026-04-25 07:18 | -38.44356 | 145.60437 | 20854 ft | 358 kts | 329° |
| 2026-04-25 07:19 | -38.42170 | 145.58915 | 20370 ft | 356 kts | 329° |
| 2026-04-25 07:19 | -38.40023 | 145.57430 | 19893 ft | 355 kts | 330° |
| 2026-04-25 07:19 | -38.37849 | 145.55936 | 19400 ft | 353 kts | 330° |
| 2026-04-25 07:19 | -38.35689 | 145.54454 | 18890 ft | 352 kts | 330° |
| 2026-04-25 07:20 | -38.33536 | 145.52978 | 18381 ft | 351 kts | 330° |
| 2026-04-25 07:20 | -38.31393 | 145.51510 | 17843 ft | 348 kts | 330° |
| 2026-04-25 07:20 | -38.29269 | 145.50056 | 17357 ft | 345 kts | 330° |
| 2026-04-25 07:20 | -38.27161 | 145.48614 | 16862 ft | 342 kts | 330° |
| 2026-04-25 07:21 | -38.25070 | 145.47184 | 16368 ft | 340 kts | 330° |
| 2026-04-25 07:21 | -38.22990 | 145.45758 | 15876 ft | 337 kts | 330° |
| 2026-04-25 07:21 | -38.20957 | 145.44361 | 15381 ft | 335 kts | 330° |
| 2026-04-25 07:21 | -38.18911 | 145.42955 | 14901 ft | 333 kts | 330° |
| 2026-04-25 07:22 | -38.16879 | 145.41558 | 14415 ft | 331 kts | 330° |
| 2026-04-25 07:22 | -38.14856 | 145.40169 | 13905 ft | 329 kts | 331° |
| 2026-04-25 07:22 | -38.12843 | 145.38795 | 13396 ft | 326 kts | 331° |
| 2026-04-25 07:22 | -38.10852 | 145.37438 | 12903 ft | 323 kts | 331° |
| 2026-04-25 07:23 | -38.08876 | 145.36088 | 12433 ft | 321 kts | 331° |
| 2026-04-25 07:23 | -38.06936 | 145.34766 | 11964 ft | 319 kts | 331° |
| 2026-04-25 07:23 | -38.04976 | 145.33432 | 11494 ft | 317 kts | 331° |
| 2026-04-25 07:23 | -38.03036 | 145.32110 | 11029 ft | 315 kts | 331° |
| 2026-04-25 07:24 | -38.01116 | 145.30799 | 10643 ft | 311 kts | 330° |
| 2026-04-25 07:24 | -37.99213 | 145.29480 | 10572 ft | 313 kts | 330° |
| 2026-04-25 07:24 | -37.97328 | 145.28160 | 10437 ft | 314 kts | 330° |
| 2026-04-25 07:24 | -37.95418 | 145.26818 | 10081 ft | 311 kts | 330° |
| 2026-04-25 07:25 | -37.93526 | 145.25486 | 9649 ft | 314 kts | 330° |
| 2026-04-25 07:25 | -37.91599 | 145.24133 | 9116 ft | 313 kts | 330° |
| 2026-04-25 07:25 | -37.89709 | 145.22811 | 8757 ft | 306 kts | 329° |
| 2026-04-25 07:25 | -37.87849 | 145.21516 | 8329 ft | 304 kts | 329° |
| 2026-04-25 07:26 | -37.86001 | 145.20231 | 7873 ft | 302 kts | 329° |
| 2026-04-25 07:26 | -37.84171 | 145.18956 | 7651 ft | 299 kts | 329° |
| 2026-04-25 07:26 | -37.82337 | 145.17703 | 7020 ft | 306 kts | 330° |
| 2026-04-25 07:26 | -37.80478 | 145.16462 | 6766 ft | 297 kts | 330° |
| 2026-04-25 07:27 | -37.78656 | 145.15257 | 6368 ft | 294 kts | 330° |
| 2026-04-25 07:27 | -37.76849 | 145.14063 | 5943 ft | 291 kts | 331° |
| 2026-04-25 07:27 | -37.75060 | 145.12880 | 5530 ft | 289 kts | 332° |
| 2026-04-25 07:27 | -37.73300 | 145.11693 | 5268 ft | 279 kts | 329° |
| 2026-04-25 07:28 | -37.71889 | 145.10200 | 4926 ft | 264 kts | 313° |
| 2026-04-25 07:28 | -37.70737 | 145.08392 | 4214 ft | 263 kts | 311° |
| 2026-04-25 07:28 | -37.69605 | 145.06583 | 3651 ft | 258 kts | 311° |
| 2026-04-25 07:28 | -37.68530 | 145.04860 | 3437 ft | 240 kts | 311° |
| 2026-04-25 07:29 | -37.67867 | 145.03785 | 3311 ft | 229 kts | 308° |
| 2026-04-25 07:29 | -37.67167 | 145.01358 | 2956 ft | 221 kts | 279° |
| 2026-04-25 07:29 | -37.67062 | 144.99464 | 2681 ft | 211 kts | 279° |
| 2026-04-25 07:29 | -37.66964 | 144.97662 | 2413 ft | 200 kts | 280° |
| 2026-04-25 07:30 | -37.66870 | 144.95973 | 2185 ft | 186 kts | 280° |
| 2026-04-25 07:30 | -37.66810 | 144.94912 | 1998 ft | 179 kts | 281° |
| 2026-04-25 07:30 | -37.66724 | 144.93404 | 1766 ft | 166 kts | 281° |
| 2026-04-25 07:30 | -37.66643 | 144.92004 | 1564 ft | 151 kts | 278° |
| 2026-04-25 07:31 | -37.66569 | 144.90730 | 1358 ft | 147 kts | 278° |
| 2026-04-25 07:31 | -37.66495 | 144.89457 | 1174 ft | 143 kts | 277° |
| 2026-04-25 07:31 | -37.66422 | 144.88203 | 998 ft | 141 kts | 278° |
| 2026-04-25 07:31 | -37.66349 | 144.86982 | 760 ft | 140 kts | 278° |
| 2026-04-25 07:32 | -37.66282 | 144.85739 | 618 ft | 142 kts | 277° |
| 2026-04-25 07:32 | -37.66189 | 144.84114 | 408 ft | 129 kts | 277° |
| 2026-04-25 07:32 | -37.66149 | 144.83479 | 415 ft | 79 kts | 274° |
| 2026-04-25 07:32 | -37.66140 | 144.83053 | 410 ft | 40 kts | 262° |
| 2026-04-25 07:33 | -37.66211 | 144.82819 | 401 ft | 29 kts | 244° |
| 2026-04-25 07:33 | -37.66376 | 144.82684 | 389 ft | 33 kts | 170° |
| 2026-04-25 07:33 | -37.66454 | 144.82927 | 388 ft | 32 kts | 95° |
| 2026-04-25 07:33 | -37.66469 | 144.83199 | 398 ft | 30 kts | 94° |
| 2026-04-25 07:34 | -37.66484 | 144.83456 | 404 ft | 22 kts | 96° |
| 2026-04-25 07:34 | -37.66492 | 144.83566 | 404 ft | 7 kts | 95° |
| 2026-04-25 07:34 | -37.66496 | 144.83643 | 404 ft | 11 kts | 94° |
| 2026-04-25 07:34 | -37.66503 | 144.83769 | 404 ft | 18 kts | 94° |
| 2026-04-25 07:35 | -37.66531 | 144.83927 | 402 ft | 18 kts | 146° |
| 2026-04-25 07:35 | -37.66671 | 144.83961 | 397 ft | 23 kts | 166° |
| 2026-04-25 07:35 | -37.66723 | 144.84118 | 389 ft | 18 kts | 118° |
| 2026-04-25 07:35 | -37.66838 | 144.84202 | 391 ft | 22 kts | 171° |
| 2026-04-25 07:36 | -37.67008 | 144.84233 | 386 ft | 27 kts | 171° |
| 2026-04-25 07:36 | -37.67208 | 144.84270 | 382 ft | 31 kts | 172° |
| 2026-04-25 07:36 | -37.67414 | 144.84307 | 377 ft | 21 kts | 173° |
| 2026-04-25 07:36 | -37.67471 | 144.84432 | 378 ft | 19 kts | 79° |
| 2026-04-25 07:37 | -37.67459 | 144.84596 | 380 ft | 19 kts | 92° |
| 2026-04-25 07:37 | -37.67452 | 144.84767 | 382 ft | 15 kts | 85° |
| 2026-04-25 07:37 | -37.67477 | 144.84831 | 381 ft | 4 kts | 168° |
| 2026-04-25 07:37 | -37.67514 | 144.84835 | 380 ft | 1 kts | 171° |
| 2026-04-25 07:38 | -37.67517 | 144.84836 | 380 ft | 0 kts | 170° |